Ahsahka, Idaho
Current Conditions -  °F | °C
As of 9:56 PM on Wednesday 28 Jan 2015 (Local Time) from KLWS Reporting Station
Clear Clear  
Wind Chill: 39°   Ceiling: Unl
Heat Index: 39°   Visibility: 10mi
Dew Point: 36°   Wind: 0mph
Humidity: 89%   Direction: NA
Pressure: 30.43"   Gusts: NA
Location:  46.51°N, 116.35°W
Report Text: KLWS 290556Z 00000KT 10SM CLR 04/02 A3043 RMK AO2 SLP315 T00390022 10083 20028 53007
Loading
Personal Weather Stations






























Interactive Weather Map New forecast layout! Learn more

10-Day Weather Forecast

Advertisements
Track Severe Weather on mobile